createdAt,value
2022-08-19T00:00:35.110Z,12.20
2022-08-19T00:03:05.528Z,11.85
2022-08-19T00:05:35.817Z,12.43
2022-08-19T00:08:06.468Z,11.57
2022-08-19T00:10:39.373Z,12.20
2022-08-19T00:13:09.533Z,12.75
2022-08-19T00:15:39.669Z,12.50
2022-08-19T00:18:09.915Z,13.00
2022-08-19T00:20:44.000Z,12.05
2022-08-19T00:23:14.216Z,13.50
2022-08-19T00:25:48.759Z,15.68
2022-08-19T00:28:19.315Z,14.63
2022-08-19T00:30:49.490Z,17.15
2022-08-19T00:33:19.627Z,17.35
2022-08-19T00:35:56.057Z,18.58
2022-08-19T00:38:34.972Z,18.70
2022-08-19T00:41:11.810Z,19.77
2022-08-19T00:43:42.366Z,20.17
2022-08-19T00:46:12.694Z,21.13
2022-08-19T00:48:43.409Z,22.23
2022-08-19T00:51:13.589Z,20.85
2022-08-19T00:53:44.697Z,21.92
2022-08-19T00:56:18.374Z,22.02
2022-08-19T00:58:48.672Z,20.58
2022-08-19T01:01:18.885Z,20.38
2022-08-19T01:03:58.077Z,19.90
2022-08-19T01:06:29.189Z,19.17
2022-08-19T01:08:59.359Z,14.82
2022-08-19T01:11:34.087Z,14.30
2022-08-19T01:14:04.677Z,12.98
2022-08-19T01:16:36.355Z,11.88
2022-08-19T01:19:07.792Z,11.43
2022-08-19T01:21:45.039Z,13.38
2022-08-19T01:24:17.922Z,17.77
2022-08-19T01:26:49.295Z,17.17
2022-08-19T01:29:19.832Z,21.33
2022-08-19T01:31:53.266Z,19.33
2022-08-19T01:34:24.452Z,19.52
2022-08-19T01:36:54.607Z,18.67
2022-08-19T01:39:29.538Z,18.88
2022-08-19T01:41:59.762Z,20.48
2022-08-19T01:44:30.004Z,20.55
2022-08-19T01:47:00.421Z,19.77
2022-08-19T01:52:00.804Z,17.65
2022-08-19T01:57:07.824Z,16.48
2022-08-19T01:59:38.534Z,16.95
2022-08-19T02:02:10.102Z,18.17
2022-08-19T02:04:41.673Z,17.27
2022-08-19T02:07:12.606Z,17.75
2022-08-19T02:09:45.444Z,16.65
2022-08-19T02:12:15.617Z,17.02
2022-08-19T02:14:45.897Z,17.25
2022-08-19T02:17:16.078Z,17.15
2022-08-19T02:19:46.202Z,15.95
2022-08-19T02:22:16.338Z,15.85
2022-08-19T02:24:49.173Z,14.90
2022-08-19T02:27:19.406Z,16.20
2022-08-19T02:29:50.588Z,15.00
2022-08-19T02:32:21.759Z,14.77
2022-08-19T02:34:52.403Z,14.20
2022-08-19T02:37:35.048Z,15.05
2022-08-19T02:40:12.475Z,14.35
2022-08-19T02:42:44.635Z,14.73
2022-08-19T02:45:15.199Z,13.43
2022-08-19T02:47:45.418Z,13.63
2022-08-19T02:50:15.833Z,12.38
2022-08-19T02:52:46.503Z,12.73
2022-08-19T02:55:20.047Z,13.57
2022-08-19T02:57:50.159Z,12.73
2022-08-19T03:00:20.613Z,12.50
2022-08-19T03:02:50.805Z,11.43
2022-08-19T03:05:21.030Z,12.20
2022-08-19T03:08:13.231Z,12.18
2022-08-19T03:10:52.984Z,12.10
2022-08-19T03:13:24.409Z,12.95
2022-08-19T03:15:54.751Z,11.20
2022-08-19T03:18:25.242Z,12.70
2022-08-19T03:20:57.172Z,12.65
2022-08-19T03:23:27.740Z,12.68
2022-08-19T03:28:57.997Z,12.68
2022-08-19T03:31:43.423Z,12.45
2022-08-19T03:34:18.844Z,12.63
2022-08-19T03:36:49.471Z,13.32
2022-08-19T03:42:32.285Z,11.18
2022-08-19T03:44:45.756Z,11.77
2022-08-19T03:47:18.078Z,10.90
2022-08-19T03:49:48.671Z,11.07
2022-08-19T03:54:48.708Z,10.75
2022-08-19T03:57:21.816Z,11.50
2022-08-19T04:00:03.749Z,11.65
2022-08-19T04:02:58.171Z,11.05
2022-08-19T04:05:32.319Z,11.15
2022-08-19T04:08:02.613Z,10.65
2022-08-19T04:10:32.932Z,11.45
2022-08-19T04:13:06.448Z,10.48
2022-08-19T04:15:40.629Z,10.80
2022-08-19T04:18:10.986Z,9.32
2022-08-19T04:20:46.378Z,10.52
2022-08-19T04:23:17.326Z,10.02
2022-08-19T04:25:48.762Z,8.98
2022-08-19T04:28:21.979Z,9.98
2022-08-19T04:30:55.385Z,10.68
2022-08-19T04:33:29.699Z,10.40
2022-08-19T04:35:59.900Z,10.20
2022-08-19T04:38:30.225Z,10.38
2022-08-19T04:41:18.570Z,10.35
2022-08-19T04:43:51.609Z,10.98
2022-08-19T04:46:40.224Z,10.85
2022-08-19T04:51:46.006Z,11.20
2022-08-19T04:54:25.852Z,11.85
2022-08-19T04:57:08.257Z,11.38
2022-08-19T04:59:42.946Z,12.10
2022-08-19T05:02:13.425Z,12.05
2022-08-19T05:04:43.865Z,11.75
2022-08-19T05:07:14.008Z,11.00
2022-08-19T05:09:57.717Z,11.93
2022-08-19T05:12:30.155Z,12.00
2022-08-19T05:15:03.367Z,10.25
2022-08-19T05:17:38.054Z,11.80
2022-08-19T05:20:21.801Z,11.05
2022-08-19T05:25:25.795Z,10.98
2022-08-19T05:27:55.985Z,10.90
2022-08-19T05:30:46.172Z,9.98
2022-08-19T05:33:17.226Z,10.02
2022-08-19T05:35:49.495Z,9.85
2022-08-19T05:38:20.415Z,9.60
2022-08-19T05:40:50.789Z,10.65
2022-08-19T05:43:20.915Z,8.80
2022-08-19T05:45:53.875Z,9.48
2022-08-19T05:48:24.031Z,8.48
2022-08-19T05:50:54.255Z,8.77
2022-08-19T05:53:24.413Z,7.85
2022-08-19T05:55:54.792Z,7.93
2022-08-19T05:58:28.200Z,9.02
2022-08-19T06:01:05.471Z,7.47
2022-08-19T06:06:07.126Z,7.05
2022-08-19T06:08:37.663Z,7.18
2022-08-19T06:13:51.598Z,7.15
2022-08-19T06:16:25.316Z,8.40
2022-08-19T06:18:57.523Z,7.97
2022-08-19T06:21:29.874Z,7.35
2022-08-19T06:24:00.919Z,7.25
2022-08-19T06:26:31.210Z,7.15
2022-08-19T06:29:01.521Z,8.07
2022-08-19T06:31:34.924Z,8.30
2022-08-19T06:34:06.406Z,7.57
2022-08-19T06:36:42.107Z,6.80
2022-08-19T06:39:13.867Z,7.63
2022-08-19T06:41:52.445Z,8.07
2022-08-19T06:44:26.637Z,7.88
2022-08-19T06:47:00.357Z,8.85
2022-08-19T06:49:32.554Z,7.38
2022-08-19T06:52:03.652Z,8.07
2022-08-19T06:54:37.735Z,7.95
2022-08-19T06:57:24.884Z,8.02
2022-08-19T06:59:55.841Z,8.50
2022-08-19T07:02:29.235Z,9.00
2022-08-19T07:05:00.237Z,8.38
2022-08-19T07:07:32.604Z,7.63
2022-08-19T07:10:06.201Z,8.48
2022-08-19T07:12:38.382Z,8.43
2022-08-19T07:15:11.003Z,8.30
2022-08-19T07:17:44.661Z,8.55
2022-08-19T07:20:17.049Z,7.55
2022-08-19T07:22:49.338Z,7.75
2022-08-19T07:25:22.042Z,11.38
2022-08-19T07:28:02.798Z,9.48
2022-08-19T07:30:33.417Z,9.82
2022-08-19T07:33:07.573Z,8.20
2022-08-19T07:35:37.798Z,11.00
2022-08-19T07:38:08.608Z,8.98
2022-08-19T07:40:38.796Z,9.65
2022-08-19T07:43:12.327Z,9.38
2022-08-19T07:45:44.490Z,10.00
2022-08-19T07:48:17.840Z,10.18
2022-08-19T07:50:49.537Z,9.60
2022-08-19T07:53:20.664Z,9.98
2022-08-19T07:55:51.275Z,11.35
2022-08-19T07:58:24.530Z,10.70
2022-08-19T08:00:55.266Z,12.50
2022-08-19T08:03:48.611Z,12.73
2022-08-19T08:06:32.122Z,12.70
2022-08-19T08:09:18.683Z,12.55
2022-08-19T08:11:51.922Z,12.77
2022-08-19T08:14:29.697Z,13.02
2022-08-19T08:17:10.904Z,12.77
2022-08-19T08:19:44.954Z,13.73
2022-08-19T08:22:36.571Z,12.10
2022-08-19T08:25:08.464Z,12.48
2022-08-19T08:27:40.697Z,10.05
2022-08-19T08:30:12.419Z,10.23
2022-08-19T08:32:44.145Z,9.40
2022-08-19T08:35:20.683Z,10.90
2022-08-19T08:37:53.007Z,11.02
2022-08-19T08:40:30.925Z,10.48
2022-08-19T08:43:07.411Z,10.35
2022-08-19T08:45:53.473Z,9.85
2022-08-19T08:48:28.636Z,10.55
2022-08-19T08:51:04.859Z,10.35
2022-08-19T08:53:40.475Z,10.15
2022-08-19T08:56:17.051Z,10.52
2022-08-19T08:58:58.414Z,10.60
2022-08-19T09:01:29.066Z,8.68
2022-08-19T09:04:03.038Z,9.77
2022-08-19T09:06:44.154Z,9.68
2022-08-19T09:09:20.648Z,10.35
2022-08-19T09:12:00.578Z,11.02
2022-08-19T09:14:51.447Z,8.88
2022-08-19T09:17:32.258Z,8.88
2022-08-19T09:20:09.213Z,9.25
2022-08-19T09:22:45.420Z,9.00
2022-08-19T09:25:17.864Z,8.30
2022-08-19T09:28:01.191Z,8.82
2022-08-19T09:30:35.510Z,8.25
2022-08-19T09:33:06.348Z,8.50
2022-08-19T09:35:49.884Z,7.97
2022-08-19T09:38:25.887Z,8.35
2022-08-19T09:40:56.045Z,9.13
2022-08-19T09:43:33.935Z,9.93
2022-08-19T09:46:18.065Z,8.18
2022-08-19T09:48:49.525Z,8.75
2022-08-19T09:51:22.257Z,7.97
2022-08-19T09:53:58.559Z,9.25
2022-08-19T09:56:28.839Z,9.13
2022-08-19T09:58:59.148Z,8.52
2022-08-19T10:01:31.713Z,9.18
2022-08-19T10:04:09.436Z,7.65
2022-08-19T10:06:53.420Z,9.55
2022-08-19T10:09:34.359Z,8.57
2022-08-19T10:12:06.311Z,8.07
2022-08-19T10:14:41.453Z,7.70
2022-08-19T10:17:19.384Z,7.18
2022-08-19T10:19:55.218Z,7.65
2022-08-19T10:22:26.457Z,7.85
2022-08-19T10:27:29.156Z,7.82
2022-08-19T10:30:02.595Z,7.18
2022-08-19T10:32:34.178Z,7.10
2022-08-19T10:35:07.119Z,6.95
2022-08-19T10:37:38.032Z,7.00
2022-08-19T10:43:00.361Z,6.72
2022-08-19T10:45:33.414Z,7.78
2022-08-19T10:48:03.650Z,7.50
2022-08-19T10:50:46.330Z,6.43
2022-08-19T10:53:17.782Z,7.38
2022-08-19T10:56:02.969Z,7.47
2022-08-19T10:58:33.155Z,6.03
2022-08-19T11:01:03.607Z,7.18
2022-08-19T11:06:04.977Z,6.55
2022-08-19T11:08:35.990Z,6.53
2022-08-19T11:11:10.375Z,5.80
2022-08-19T11:13:45.248Z,7.90
2022-08-19T11:16:17.772Z,6.57
2022-08-19T11:18:49.252Z,7.32
2022-08-19T11:21:21.568Z,7.40
2022-08-19T11:23:53.626Z,6.32
2022-08-19T11:26:27.207Z,6.18
2022-08-19T11:28:57.866Z,6.50
2022-08-19T11:31:29.966Z,7.07
2022-08-19T11:34:00.987Z,8.07
2022-08-19T11:36:32.440Z,6.43
2022-08-19T11:39:02.844Z,8.43
2022-08-19T11:44:06.063Z,5.82
2022-08-19T11:46:36.278Z,6.40
2022-08-19T11:49:13.828Z,5.70
2022-08-19T11:51:45.789Z,4.95
2022-08-19T11:54:18.191Z,5.72
2022-08-19T11:56:50.909Z,5.88
2022-08-19T11:59:21.009Z,5.38
2022-08-19T12:01:51.124Z,5.65
2022-08-19T12:04:21.358Z,5.80
2022-08-19T12:11:54.982Z,4.95
2022-08-19T12:14:25.219Z,4.47
2022-08-19T12:19:25.743Z,5.40
2022-08-19T12:21:58.147Z,4.80
2022-08-19T12:24:30.466Z,4.03
2022-08-19T12:27:03.407Z,4.07
2022-08-19T12:29:34.830Z,4.82
2022-08-19T12:32:05.296Z,4.15
2022-08-19T12:34:38.233Z,4.93
2022-08-19T12:37:09.845Z,4.05
2022-08-19T12:39:42.869Z,3.30
2022-08-19T12:42:16.972Z,3.65
2022-08-19T12:44:47.681Z,3.53
2022-08-19T12:47:19.206Z,3.15
2022-08-19T12:49:53.760Z,3.20
2022-08-19T12:52:28.423Z,3.58
2022-08-19T12:55:00.215Z,2.85
2022-08-19T12:57:34.315Z,3.42
2022-08-19T13:00:08.964Z,3.45
2022-08-19T13:02:39.409Z,3.03
2022-08-19T13:05:12.658Z,2.72
2022-08-19T13:07:45.008Z,2.65
2022-08-19T13:10:17.344Z,2.47
2022-08-19T13:12:52.072Z,2.42
2022-08-19T13:15:24.476Z,2.00
2022-08-19T13:17:57.319Z,2.05
2022-08-19T13:20:28.555Z,2.33
2022-08-19T13:22:58.991Z,1.85
2022-08-19T13:25:29.403Z,1.75
2022-08-19T13:28:03.311Z,2.05
2022-08-19T13:30:45.847Z,2.17
2022-08-19T13:33:16.576Z,2.35
2022-08-19T13:35:50.235Z,2.00
2022-08-19T13:38:21.974Z,2.05
2022-08-19T13:40:54.132Z,1.33
2022-08-19T13:43:30.429Z,1.70
2022-08-19T13:46:01.154Z,1.60
2022-08-19T13:48:32.214Z,1.52
2022-08-19T13:51:02.423Z,1.73
2022-08-19T13:56:02.485Z,1.55
2022-08-19T14:01:05.225Z,1.48
2022-08-19T14:03:36.639Z,1.50
2022-08-19T14:06:06.914Z,1.85
2022-08-19T14:08:45.558Z,1.23
2022-08-19T14:11:17.044Z,1.30
2022-08-19T14:13:49.766Z,1.42
2022-08-19T14:16:19.943Z,2.05
2022-08-19T14:23:51.226Z,1.30
2022-08-19T14:26:23.603Z,0.93
2022-08-19T14:28:58.950Z,1.25
2022-08-19T14:31:30.891Z,1.75
2022-08-19T14:34:02.074Z,2.22
2022-08-19T14:36:36.339Z,1.92
2022-08-19T14:39:10.540Z,2.15
2022-08-19T14:41:43.616Z,1.60
2022-08-19T14:44:16.510Z,1.92
2022-08-19T14:46:49.607Z,2.45
2022-08-19T14:49:20.171Z,1.65
2022-08-19T14:54:20.569Z,1.30
2022-08-19T14:56:51.410Z,1.45
2022-08-19T14:59:24.215Z,1.27
2022-08-19T15:01:54.440Z,0.90
2022-08-19T15:04:24.670Z,1.23
2022-08-19T15:06:54.660Z,1.05
2022-08-19T15:09:24.713Z,1.27
2022-08-19T15:11:54.735Z,1.58
2022-08-19T15:14:27.416Z,1.65
2022-08-19T15:16:58.097Z,1.27
2022-08-19T15:19:28.299Z,1.10
2022-08-19T15:21:58.535Z,0.95
2022-08-19T15:24:29.866Z,1.25
2022-08-19T15:26:59.834Z,0.70
2022-08-19T15:29:33.552Z,1.38
2022-08-19T15:32:03.692Z,0.85
2022-08-19T15:34:34.184Z,0.93
2022-08-19T15:37:06.368Z,0.98
2022-08-19T15:39:36.571Z,1.10
2022-08-19T15:42:07.294Z,1.13
2022-08-19T15:44:40.469Z,1.00
2022-08-19T15:47:10.799Z,1.20
2022-08-19T15:49:41.060Z,1.45
2022-08-19T15:52:11.190Z,1.25
2022-08-19T15:54:42.192Z,1.23
2022-08-19T15:57:24.729Z,1.13
2022-08-19T16:00:09.786Z,1.10
2022-08-19T16:02:54.065Z,1.00
2022-08-19T16:05:39.997Z,1.20
2022-08-19T16:08:10.643Z,0.95
2022-08-19T16:10:41.281Z,1.05
2022-08-19T16:13:11.289Z,0.77
2022-08-19T16:15:45.094Z,0.93
2022-08-19T16:18:15.660Z,0.90
2022-08-19T16:20:46.766Z,1.30
2022-08-19T16:23:16.747Z,1.25
2022-08-19T16:25:46.767Z,1.15
2022-08-19T16:28:16.874Z,1.20
2022-08-19T16:30:51.252Z,1.23
2022-08-19T16:33:23.235Z,1.27
2022-08-19T16:36:00.124Z,0.95
2022-08-19T16:38:31.377Z,0.93
2022-08-19T16:41:01.882Z,1.50
2022-08-19T16:43:33.426Z,1.75
2022-08-19T16:46:06.067Z,3.22
2022-08-19T16:48:36.127Z,1.48
2022-08-19T16:51:08.726Z,1.08
2022-08-19T16:53:39.479Z,1.05
2022-08-19T16:56:11.009Z,1.15
2022-08-19T16:58:41.285Z,1.45
2022-08-19T17:03:44.146Z,1.27
2022-08-19T17:06:20.270Z,1.42
2022-08-19T17:08:52.600Z,1.33
2022-08-19T17:11:23.499Z,1.52
2022-08-19T17:13:54.311Z,1.38
2022-08-19T17:16:29.546Z,1.73
2022-08-19T17:19:01.941Z,1.60
2022-08-19T17:21:34.846Z,1.85
2022-08-19T17:24:09.133Z,1.73
2022-08-19T17:26:42.020Z,1.45
2022-08-19T17:29:11.982Z,2.00
2022-08-19T17:31:45.115Z,1.73
2022-08-19T17:34:15.507Z,1.92
2022-08-19T17:39:15.331Z,1.77
2022-08-19T17:41:45.775Z,5.43
2022-08-19T17:44:15.856Z,8.27
2022-08-19T17:46:49.462Z,2.25
2022-08-19T17:49:20.058Z,2.25
2022-08-19T17:51:52.419Z,2.28
2022-08-19T17:54:23.362Z,2.10
2022-08-19T17:57:02.402Z,2.38
2022-08-19T17:59:32.651Z,2.17
2022-08-19T18:02:05.411Z,2.42
2022-08-19T18:04:36.429Z,2.20
2022-08-19T18:07:06.809Z,1.88
2022-08-19T18:12:14.169Z,1.88
2022-08-19T18:14:45.031Z,2.33
2022-08-19T18:17:23.067Z,1.75
2022-08-19T18:19:53.337Z,2.60
2022-08-19T18:22:29.525Z,2.85
2022-08-19T18:25:00.928Z,2.30
2022-08-19T18:27:31.556Z,1.85
2022-08-19T18:30:01.826Z,2.25
2022-08-19T18:32:36.800Z,2.13
2022-08-19T18:35:11.258Z,2.08
2022-08-19T18:37:41.355Z,1.52
2022-08-19T18:40:28.890Z,1.83
2022-08-19T18:43:11.431Z,1.98
2022-08-19T18:45:57.210Z,1.75
2022-08-19T18:48:42.954Z,2.55
2022-08-19T18:51:14.414Z,1.65
2022-08-19T18:53:46.142Z,1.27
2022-08-19T18:56:19.711Z,1.10
2022-08-19T18:58:50.536Z,10.63
2022-08-19T19:01:23.996Z,6.88
2022-08-19T19:03:57.805Z,3.97
2022-08-19T19:06:32.343Z,2.58
2022-08-19T19:09:02.629Z,1.45
2022-08-19T19:11:37.400Z,1.85
2022-08-19T19:14:23.251Z,1.45
2022-08-19T19:17:04.756Z,1.50
2022-08-19T19:19:42.468Z,1.50
2022-08-19T19:22:15.044Z,33.58
2022-08-19T19:24:46.749Z,3.00
2022-08-19T19:27:20.366Z,2.13
2022-08-19T19:29:52.482Z,2.58
2022-08-19T19:35:52.212Z,1.83
2022-08-19T19:38:22.652Z,2.13
2022-08-19T19:43:23.021Z,1.95
2022-08-19T19:45:53.404Z,1.95
2022-08-19T19:48:26.824Z,2.13
2022-08-19T19:51:00.471Z,2.15
2022-08-19T19:53:34.029Z,2.58
2022-08-19T19:56:04.746Z,2.00
2022-08-19T19:58:37.642Z,2.35
2022-08-19T20:01:12.840Z,2.25
2022-08-19T20:03:51.905Z,2.95
2022-08-19T20:06:25.200Z,2.70
2022-08-19T20:09:08.385Z,2.40
2022-08-19T20:11:42.163Z,2.58
2022-08-19T20:14:14.984Z,2.38
2022-08-19T20:16:47.146Z,3.42
2022-08-19T20:19:20.304Z,2.40
2022-08-19T20:21:53.790Z,3.05
2022-08-19T20:24:27.600Z,2.83
2022-08-19T20:26:58.673Z,3.10
2022-08-19T20:29:39.059Z,3.28
2022-08-19T20:32:13.203Z,6.07
2022-08-19T20:34:44.945Z,7.97
2022-08-19T20:37:17.974Z,3.17
2022-08-19T20:39:48.306Z,3.08
2022-08-19T20:42:18.909Z,3.88
2022-08-19T20:47:19.579Z,4.22
2022-08-19T20:49:50.008Z,5.38
2022-08-19T20:52:23.421Z,4.13
2022-08-19T20:54:53.922Z,4.38
2022-08-19T21:02:25.248Z,4.15
2022-08-19T21:04:55.623Z,4.63
2022-08-19T21:07:39.273Z,5.00
2022-08-19T21:10:11.494Z,4.70
2022-08-19T21:12:42.331Z,4.78
2022-08-19T21:15:13.565Z,5.50
2022-08-19T21:17:44.123Z,5.05
2022-08-19T21:25:18.863Z,4.10
2022-08-19T21:27:49.421Z,4.03
2022-08-19T21:32:52.500Z,4.15
2022-08-19T21:35:23.657Z,3.50
2022-08-19T21:37:57.937Z,3.17
2022-08-19T21:40:29.186Z,3.45
2022-08-19T21:42:59.900Z,3.72
2022-08-19T21:45:30.457Z,4.10
2022-08-19T21:50:32.689Z,3.95
2022-08-19T21:53:05.964Z,3.95
2022-08-19T21:55:36.525Z,5.35
2022-08-19T22:00:38.277Z,5.03
2022-08-19T22:03:09.470Z,5.43
2022-08-19T22:05:40.195Z,5.35
2022-08-19T22:08:14.614Z,4.68
2022-08-19T22:10:45.408Z,5.63
2022-08-19T22:13:18.386Z,6.57
2022-08-19T22:15:49.084Z,5.55
2022-08-19T22:20:50.835Z,5.65
2022-08-19T22:23:24.062Z,6.20
2022-08-19T22:25:54.393Z,5.65
2022-08-19T22:28:27.963Z,5.63
2022-08-19T22:30:58.995Z,5.43
2022-08-19T22:33:30.344Z,5.20
2022-08-19T22:38:33.377Z,4.13
2022-08-19T22:41:03.804Z,4.68
2022-08-19T22:43:34.555Z,3.75
2022-08-19T22:46:16.996Z,3.45
2022-08-19T22:48:49.464Z,4.05
2022-08-19T22:51:43.687Z,4.93
2022-08-19T22:54:16.744Z,4.38
2022-08-19T22:56:47.167Z,4.25
2022-08-19T23:04:17.864Z,5.18
2022-08-19T23:09:24.251Z,4.82
2022-08-19T23:11:54.722Z,4.97
2022-08-19T23:14:25.254Z,5.00
2022-08-19T23:19:29.977Z,4.97
2022-08-19T23:22:00.754Z,5.60
2022-08-19T23:24:34.191Z,6.38
2022-08-19T23:27:18.111Z,6.22
2022-08-19T23:30:00.835Z,7.00
2022-08-19T23:32:31.618Z,8.27
2022-08-19T23:35:02.091Z,7.93
2022-08-19T23:37:32.510Z,8.15
2022-08-19T23:40:06.045Z,7.82
2022-08-19T23:42:36.588Z,7.55
2022-08-19T23:47:41.332Z,6.75
2022-08-19T23:50:13.977Z,6.40
2022-08-19T23:52:49.152Z,5.30
2022-08-19T23:55:24.955Z,4.95
2022-08-19T23:57:56.001Z,4.10
